sensor_id;sensor_type;location;lat;lon;timestamp;pressure;altitude;pressure_sealevel;temperature;humidity
49063;BME280;34876;51.464;-0.150;2024-03-25T00:01:53;100739.00;;;18.26;36.42
49063;BME280;34876;51.464;-0.150;2024-03-25T00:04:22;100734.67;;;18.27;36.45
49063;BME280;34876;51.464;-0.150;2024-03-25T00:06:51;100729.67;;;18.27;36.44
49063;BME280;34876;51.464;-0.150;2024-03-25T00:09:20;100725.52;;;18.27;36.48
49063;BME280;34876;51.464;-0.150;2024-03-25T00:11:50;100721.22;;;18.27;36.44
49063;BME280;34876;51.464;-0.150;2024-03-25T00:14:19;100720.51;;;18.27;36.47
49063;BME280;34876;51.464;-0.150;2024-03-25T00:16:48;100712.63;;;18.26;36.46
49063;BME280;34876;51.464;-0.150;2024-03-25T00:19:17;100705.39;;;18.27;36.46
49063;BME280;34876;51.464;-0.150;2024-03-25T00:21:46;100697.16;;;18.27;36.48
49063;BME280;34876;51.464;-0.150;2024-03-25T00:24:16;100691.43;;;18.27;36.49
49063;BME280;34876;51.464;-0.150;2024-03-25T00:26:45;100689.63;;;18.26;36.56
49063;BME280;34876;51.464;-0.150;2024-03-25T00:29:14;100685.44;;;18.26;36.45
49063;BME280;34876;51.464;-0.150;2024-03-25T00:31:43;100686.00;;;18.27;36.53
49063;BME280;34876;51.464;-0.150;2024-03-25T00:34:12;100682.51;;;18.27;36.52
49063;BME280;34876;51.464;-0.150;2024-03-25T00:36:42;100682.46;;;18.26;36.55
49063;BME280;34876;51.464;-0.150;2024-03-25T00:39:11;100679.86;;;18.27;36.53
49063;BME280;34876;51.464;-0.150;2024-03-25T00:41:41;100673.68;;;18.26;36.52
49063;BME280;34876;51.464;-0.150;2024-03-25T00:44:10;100665.46;;;18.26;36.57
49063;BME280;34876;51.464;-0.150;2024-03-25T00:46:39;100660.97;;;18.26;36.55
49063;BME280;34876;51.464;-0.150;2024-03-25T00:49:09;100655.00;;;18.27;36.60
49063;BME280;34876;51.464;-0.150;2024-03-25T00:51:38;100652.19;;;18.27;36.61
49063;BME280;34876;51.464;-0.150;2024-03-25T00:54:08;100650.11;;;18.27;36.64
49063;BME280;34876;51.464;-0.150;2024-03-25T00:56:38;100645.89;;;18.28;36.62
49063;BME280;34876;51.464;-0.150;2024-03-25T00:59:08;100638.54;;;18.27;36.56
49063;BME280;34876;51.464;-0.150;2024-03-25T01:03:40;100637.94;;;18.29;36.66
49063;BME280;34876;51.464;-0.150;2024-03-25T01:06:10;100633.93;;;18.26;36.70
49063;BME280;34876;51.464;-0.150;2024-03-25T01:08:40;100633.87;;;18.27;36.71
49063;BME280;34876;51.464;-0.150;2024-03-25T01:11:09;100633.53;;;18.27;36.69
49063;BME280;34876;51.464;-0.150;2024-03-25T01:13:38;100630.06;;;18.27;36.59
49063;BME280;34876;51.464;-0.150;2024-03-25T01:16:11;100628.34;;;18.27;36.69
49063;BME280;34876;51.464;-0.150;2024-03-25T01:18:40;100620.82;;;18.27;36.67
49063;BME280;34876;51.464;-0.150;2024-03-25T01:21:09;100620.57;;;18.26;36.68
49063;BME280;34876;51.464;-0.150;2024-03-25T01:23:42;100623.13;;;18.25;36.71
49063;BME280;34876;51.464;-0.150;2024-03-25T01:26:11;100617.21;;;18.26;36.73
49063;BME280;34876;51.464;-0.150;2024-03-25T01:28:40;100613.48;;;18.26;36.70
49063;BME280;34876;51.464;-0.150;2024-03-25T01:31:10;100609.09;;;18.25;36.81
49063;BME280;34876;51.464;-0.150;2024-03-25T01:33:44;100609.73;;;18.25;36.81
49063;BME280;34876;51.464;-0.150;2024-03-25T01:36:13;100608.03;;;18.26;36.77
49063;BME280;34876;51.464;-0.150;2024-03-25T01:38:42;100602.74;;;18.25;36.80
49063;BME280;34876;51.464;-0.150;2024-03-25T01:41:12;100596.88;;;18.23;36.83
49063;BME280;34876;51.464;-0.150;2024-03-25T01:43:42;100599.87;;;18.25;36.80
49063;BME280;34876;51.464;-0.150;2024-03-25T01:46:10;100598.87;;;18.24;36.84
49063;BME280;34876;51.464;-0.150;2024-03-25T01:48:40;100596.28;;;18.22;36.81
49063;BME280;34876;51.464;-0.150;2024-03-25T01:51:09;100591.10;;;18.22;36.82
49063;BME280;34876;51.464;-0.150;2024-03-25T01:53:49;100585.49;;;18.21;36.85
49063;BME280;34876;51.464;-0.150;2024-03-25T01:56:21;100581.05;;;18.21;36.85
49063;BME280;34876;51.464;-0.150;2024-03-25T01:58:56;100569.44;;;18.21;36.89
49063;BME280;34876;51.464;-0.150;2024-03-25T02:01:31;100557.74;;;18.21;36.85
49063;BME280;34876;51.464;-0.150;2024-03-25T02:04:01;100552.16;;;18.20;36.88
49063;BME280;34876;51.464;-0.150;2024-03-25T02:06:32;100548.63;;;18.21;36.83
49063;BME280;34876;51.464;-0.150;2024-03-25T02:09:02;100545.37;;;18.20;36.82
49063;BME280;34876;51.464;-0.150;2024-03-25T02:11:32;100544.41;;;18.20;36.84
49063;BME280;34876;51.464;-0.150;2024-03-25T02:14:02;100536.74;;;18.20;36.91
49063;BME280;34876;51.464;-0.150;2024-03-25T02:16:36;100536.27;;;18.18;36.91
49063;BME280;34876;51.464;-0.150;2024-03-25T02:19:11;100535.27;;;18.18;36.88
49063;BME280;34876;51.464;-0.150;2024-03-25T02:21:43;100533.67;;;18.18;36.96
49063;BME280;34876;51.464;-0.150;2024-03-25T02:24:12;100532.67;;;18.18;36.97
49063;BME280;34876;51.464;-0.150;2024-03-25T02:26:43;100528.11;;;18.17;36.91
49063;BME280;34876;51.464;-0.150;2024-03-25T02:29:12;100526.91;;;18.17;36.91
49063;BME280;34876;51.464;-0.150;2024-03-25T02:31:41;100523.19;;;18.15;36.96
49063;BME280;34876;51.464;-0.150;2024-03-25T02:34:13;100517.08;;;18.16;36.93
49063;BME280;34876;51.464;-0.150;2024-03-25T02:36:43;100516.36;;;18.15;37.01
49063;BME280;34876;51.464;-0.150;2024-03-25T02:39:12;100512.40;;;18.15;36.87
49063;BME280;34876;51.464;-0.150;2024-03-25T02:41:40;100508.44;;;18.14;36.97
49063;BME280;34876;51.464;-0.150;2024-03-25T02:44:10;100506.38;;;18.13;37.00
49063;BME280;34876;51.464;-0.150;2024-03-25T02:46:40;100501.77;;;18.13;36.97
49063;BME280;34876;51.464;-0.150;2024-03-25T02:49:10;100498.87;;;18.13;36.98
49063;BME280;34876;51.464;-0.150;2024-03-25T02:51:39;100498.17;;;18.12;36.93
49063;BME280;34876;51.464;-0.150;2024-03-25T02:54:11;100489.64;;;18.14;36.98
49063;BME280;34876;51.464;-0.150;2024-03-25T02:56:40;100483.16;;;18.11;37.07
49063;BME280;34876;51.464;-0.150;2024-03-25T02:59:09;100480.29;;;18.10;36.98
49063;BME280;34876;51.464;-0.150;2024-03-25T03:01:39;100477.24;;;18.11;36.98
49063;BME280;34876;51.464;-0.150;2024-03-25T03:04:09;100470.51;;;18.11;36.98
49063;BME280;34876;51.464;-0.150;2024-03-25T03:06:40;100463.27;;;18.09;36.98
49063;BME280;34876;51.464;-0.150;2024-03-25T03:09:10;100464.87;;;18.10;36.97
49063;BME280;34876;51.464;-0.150;2024-03-25T03:11:38;100465.11;;;18.08;37.02
49063;BME280;34876;51.464;-0.150;2024-03-25T03:14:09;100462.30;;;18.08;37.05
49063;BME280;34876;51.464;-0.150;2024-03-25T03:16:42;100457.13;;;18.09;36.99
49063;BME280;34876;51.464;-0.150;2024-03-25T03:19:11;100452.53;;;18.08;36.93
49063;BME280;34876;51.464;-0.150;2024-03-25T03:21:39;100450.69;;;18.08;36.92
49063;BME280;34876;51.464;-0.150;2024-03-25T03:24:11;100444.95;;;18.09;36.98
49063;BME280;34876;51.464;-0.150;2024-03-25T03:26:40;100438.16;;;18.08;36.97
49063;BME280;34876;51.464;-0.150;2024-03-25T03:29:15;100436.55;;;18.07;36.95
49063;BME280;34876;51.464;-0.150;2024-03-25T03:31:45;100434.87;;;18.07;36.98
49063;BME280;34876;51.464;-0.150;2024-03-25T03:34:14;100433.22;;;18.05;36.97
49063;BME280;34876;51.464;-0.150;2024-03-25T03:36:43;100428.87;;;18.07;37.00
49063;BME280;34876;51.464;-0.150;2024-03-25T03:39:12;100426.44;;;18.05;37.04
49063;BME280;34876;51.464;-0.150;2024-03-25T03:41:41;100422.84;;;18.05;36.99
49063;BME280;34876;51.464;-0.150;2024-03-25T03:44:10;100421.62;;;18.05;37.01
49063;BME280;34876;51.464;-0.150;2024-03-25T03:46:41;100419.17;;;18.05;36.98
49063;BME280;34876;51.464;-0.150;2024-03-25T03:49:10;100414.73;;;18.04;36.95
49063;BME280;34876;51.464;-0.150;2024-03-25T03:51:38;100410.27;;;18.04;36.98
49063;BME280;34876;51.464;-0.150;2024-03-25T03:54:07;100403.59;;;18.03;36.95
49063;BME280;34876;51.464;-0.150;2024-03-25T03:56:37;100397.93;;;18.03;36.96
49063;BME280;34876;51.464;-0.150;2024-03-25T03:59:06;100396.01;;;18.03;36.98
49063;BME280;34876;51.464;-0.150;2024-03-25T04:01:35;100393.33;;;18.04;36.91
49063;BME280;34876;51.464;-0.150;2024-03-25T04:04:05;100391.93;;;18.03;36.99
49063;BME280;34876;51.464;-0.150;2024-03-25T04:06:34;100391.86;;;18.02;36.97
49063;BME280;34876;51.464;-0.150;2024-03-25T04:09:09;100390.01;;;18.03;36.95
49063;BME280;34876;51.464;-0.150;2024-03-25T04:11:39;100389.23;;;18.02;36.94
49063;BME280;34876;51.464;-0.150;2024-03-25T04:14:07;100387.23;;;18.01;36.97
49063;BME280;34876;51.464;-0.150;2024-03-25T04:16:37;100386.24;;;18.01;37.10
49063;BME280;34876;51.464;-0.150;2024-03-25T04:19:06;100382.84;;;18.03;37.00
49063;BME280;34876;51.464;-0.150;2024-03-25T04:21:35;100379.03;;;18.01;37.07
49063;BME280;34876;51.464;-0.150;2024-03-25T04:24:05;100374.40;;;18.01;37.11
49063;BME280;34876;51.464;-0.150;2024-03-25T04:26:35;100370.13;;;18.00;37.17
49063;BME280;34876;51.464;-0.150;2024-03-25T04:29:04;100370.20;;;18.01;37.16
49063;BME280;34876;51.464;-0.150;2024-03-25T04:31:35;100370.41;;;18.01;37.18
49063;BME280;34876;51.464;-0.150;2024-03-25T04:34:06;100373.63;;;18.02;37.21
49063;BME280;34876;51.464;-0.150;2024-03-25T04:36:36;100371.73;;;18.00;37.33
49063;BME280;34876;51.464;-0.150;2024-03-25T04:39:06;100368.94;;;18.01;37.28
49063;BME280;34876;51.464;-0.150;2024-03-25T04:41:36;100365.97;;;18.00;37.33
49063;BME280;34876;51.464;-0.150;2024-03-25T04:44:04;100361.20;;;18.00;37.36
49063;BME280;34876;51.464;-0.150;2024-03-25T04:46:34;100358.35;;;17.99;37.41
49063;BME280;34876;51.464;-0.150;2024-03-25T04:49:03;100355.11;;;18.00;37.39
49063;BME280;34876;51.464;-0.150;2024-03-25T04:51:33;100353.39;;;18.01;37.42
49063;BME280;34876;51.464;-0.150;2024-03-25T04:54:02;100351.73;;;18.01;37.40
49063;BME280;34876;51.464;-0.150;2024-03-25T04:56:31;100345.32;;;18.00;37.51
49063;BME280;34876;51.464;-0.150;2024-03-25T04:59:00;100342.79;;;17.99;37.57
49063;BME280;34876;51.464;-0.150;2024-03-25T05:01:30;100346.22;;;18.01;37.56
49063;BME280;34876;51.464;-0.150;2024-03-25T05:03:59;100344.69;;;18.00;37.58
49063;BME280;34876;51.464;-0.150;2024-03-25T05:06:28;100341.59;;;17.99;37.67
49063;BME280;34876;51.464;-0.150;2024-03-25T05:08:57;100339.16;;;18.00;37.65
49063;BME280;34876;51.464;-0.150;2024-03-25T05:11:27;100340.62;;;18.01;37.73
49063;BME280;34876;51.464;-0.150;2024-03-25T05:13:57;100337.65;;;17.99;37.76
49063;BME280;34876;51.464;-0.150;2024-03-25T05:16:26;100337.25;;;17.99;37.78
49063;BME280;34876;51.464;-0.150;2024-03-25T05:18:55;100335.69;;;18.02;37.74
49063;BME280;34876;51.464;-0.150;2024-03-25T05:21:24;100333.48;;;17.99;37.85
49063;BME280;34876;51.464;-0.150;2024-03-25T05:23:54;100330.11;;;18.02;37.82
49063;BME280;34876;51.464;-0.150;2024-03-25T05:26:23;100326.77;;;18.00;37.83
49063;BME280;34876;51.464;-0.150;2024-03-25T05:28:53;100328.20;;;18.01;37.89
49063;BME280;34876;51.464;-0.150;2024-03-25T05:31:23;100325.05;;;17.99;37.89
49063;BME280;34876;51.464;-0.150;2024-03-25T05:33:53;100321.97;;;17.98;37.99
49063;BME280;34876;51.464;-0.150;2024-03-25T05:36:22;100319.37;;;17.99;37.96
49063;BME280;34876;51.464;-0.150;2024-03-25T05:38:52;100321.07;;;17.99;37.99
49063;BME280;34876;51.464;-0.150;2024-03-25T05:41:21;100319.17;;;17.98;38.01
49063;BME280;34876;51.464;-0.150;2024-03-25T05:43:49;100318.06;;;17.99;38.05
49063;BME280;34876;51.464;-0.150;2024-03-25T05:46:19;100315.40;;;18.00;38.08
49063;BME280;34876;51.464;-0.150;2024-03-25T05:48:49;100312.07;;;18.00;38.12
49063;BME280;34876;51.464;-0.150;2024-03-25T05:51:18;100310.45;;;18.00;38.08
49063;BME280;34876;51.464;-0.150;2024-03-25T05:53:47;100309.66;;;17.99;38.13
49063;BME280;34876;51.464;-0.150;2024-03-25T05:56:16;100309.09;;;17.99;38.13
49063;BME280;34876;51.464;-0.150;2024-03-25T05:58:44;100303.05;;;17.98;38.15
49063;BME280;34876;51.464;-0.150;2024-03-25T06:01:13;100300.67;;;17.99;38.18
49063;BME280;34876;51.464;-0.150;2024-03-25T06:03:42;100302.33;;;17.98;38.21
49063;BME280;34876;51.464;-0.150;2024-03-25T06:06:11;100299.55;;;17.98;38.24
49063;BME280;34876;51.464;-0.150;2024-03-25T06:08:41;100293.60;;;17.98;38.30
49063;BME280;34876;51.464;-0.150;2024-03-25T06:11:15;100290.86;;;17.97;38.28
49063;BME280;34876;51.464;-0.150;2024-03-25T06:13:45;100290.61;;;18.00;38.28
49063;BME280;34876;51.464;-0.150;2024-03-25T06:16:22;100288.90;;;17.99;38.31
49063;BME280;34876;51.464;-0.150;2024-03-25T06:18:52;100283.30;;;18.01;38.30
49063;BME280;34876;51.464;-0.150;2024-03-25T06:21:22;100275.09;;;18.10;38.10
49063;BME280;34876;51.464;-0.150;2024-03-25T06:23:50;100272.79;;;18.02;38.27
49063;BME280;34876;51.464;-0.150;2024-03-25T06:26:19;100264.59;;;18.01;38.44
49063;BME280;34876;51.464;-0.150;2024-03-25T06:28:48;100260.78;;;18.00;38.39
49063;BME280;34876;51.464;-0.150;2024-03-25T06:31:18;100263.93;;;17.99;38.45
49063;BME280;34876;51.464;-0.150;2024-03-25T06:33:47;100262.89;;;18.01;38.38
49063;BME280;34876;51.464;-0.150;2024-03-25T06:36:16;100264.66;;;18.02;38.41
49063;BME280;34876;51.464;-0.150;2024-03-25T06:38:45;100266.81;;;18.05;38.35
49063;BME280;34876;51.464;-0.150;2024-03-25T06:41:15;100262.02;;;18.04;38.40
49063;BME280;34876;51.464;-0.150;2024-03-25T06:43:44;100258.76;;;18.05;38.42
49063;BME280;34876;51.464;-0.150;2024-03-25T06:46:13;100252.53;;;18.05;38.42
49063;BME280;34876;51.464;-0.150;2024-03-25T06:48:42;100251.40;;;18.01;38.55
49063;BME280;34876;51.464;-0.150;2024-03-25T06:51:12;100245.26;;;18.05;38.46
49063;BME280;34876;51.464;-0.150;2024-03-25T06:53:41;100241.49;;;18.04;38.50
49063;BME280;34876;51.464;-0.150;2024-03-25T06:56:12;100240.40;;;18.07;38.52
49063;BME280;34876;51.464;-0.150;2024-03-25T06:58:42;100239.78;;;18.07;38.52
49063;BME280;34876;51.464;-0.150;2024-03-25T07:01:11;100233.23;;;18.07;38.51
49063;BME280;34876;51.464;-0.150;2024-03-25T07:03:40;100231.50;;;18.04;38.63
49063;BME280;34876;51.464;-0.150;2024-03-25T07:06:09;100232.07;;;18.07;38.54
49063;BME280;34876;51.464;-0.150;2024-03-25T07:08:39;100234.01;;;18.09;38.55
49063;BME280;34876;51.464;-0.150;2024-03-25T07:11:08;100231.44;;;18.11;38.49
49063;BME280;34876;51.464;-0.150;2024-03-25T07:13:39;100236.23;;;18.12;38.53
49063;BME280;34876;51.464;-0.150;2024-03-25T07:16:07;100234.58;;;18.13;38.52
49063;BME280;34876;51.464;-0.150;2024-03-25T07:18:37;100232.20;;;18.16;38.50
49063;BME280;34876;51.464;-0.150;2024-03-25T07:21:07;100233.54;;;18.17;38.46
49063;BME280;34876;51.464;-0.150;2024-03-25T07:23:35;100230.28;;;18.16;38.49
49063;BME280;34876;51.464;-0.150;2024-03-25T07:26:07;100232.38;;;18.16;38.52
49063;BME280;34876;51.464;-0.150;2024-03-25T07:28:36;100238.18;;;18.16;38.48
49063;BME280;34876;51.464;-0.150;2024-03-25T07:31:04;100238.88;;;18.18;38.50
49063;BME280;34876;51.464;-0.150;2024-03-25T07:33:33;100238.33;;;18.13;38.65
49063;BME280;34876;51.464;-0.150;2024-03-25T07:36:04;100234.22;;;18.15;38.59
49063;BME280;34876;51.464;-0.150;2024-03-25T07:38:34;100230.29;;;18.18;38.56
49063;BME280;34876;51.464;-0.150;2024-03-25T07:41:04;100226.77;;;18.23;38.47
49063;BME280;34876;51.464;-0.150;2024-03-25T07:43:34;100223.24;;;18.25;38.43
49063;BME280;34876;51.464;-0.150;2024-03-25T07:46:03;100223.53;;;18.18;38.59
49063;BME280;34876;51.464;-0.150;2024-03-25T07:48:32;100225.06;;;18.25;38.47
49063;BME280;34876;51.464;-0.150;2024-03-25T07:51:02;100223.16;;;18.25;38.51
49063;BME280;34876;51.464;-0.150;2024-03-25T07:53:32;100215.53;;;18.34;38.29
49063;BME280;34876;51.464;-0.150;2024-03-25T07:56:06;100216.58;;;18.41;38.14
49063;BME280;34876;51.464;-0.150;2024-03-25T07:58:34;100214.78;;;18.59;37.79
49063;BME280;34876;51.464;-0.150;2024-03-25T08:01:03;100213.72;;;18.70;37.54
49063;BME280;34876;51.464;-0.150;2024-03-25T08:03:33;100209.06;;;18.67;37.64
49063;BME280;34876;51.464;-0.150;2024-03-25T08:06:04;100207.66;;;18.88;37.24
49063;BME280;34876;51.464;-0.150;2024-03-25T08:08:33;100207.76;;;18.82;37.34
49063;BME280;34876;51.464;-0.150;2024-03-25T08:11:03;100203.76;;;18.84;37.32
49063;BME280;34876;51.464;-0.150;2024-03-25T08:13:31;100195.75;;;18.84;37.29
49063;BME280;34876;51.464;-0.150;2024-03-25T08:16:01;100201.02;;;18.81;37.36
49063;BME280;34876;51.464;-0.150;2024-03-25T08:18:30;100202.42;;;18.76;37.51
49063;BME280;34876;51.464;-0.150;2024-03-25T08:21:00;100197.87;;;18.63;37.72
49063;BME280;34876;51.464;-0.150;2024-03-25T08:23:31;100189.24;;;18.67;37.68
49063;BME280;34876;51.464;-0.150;2024-03-25T08:26:01;100184.81;;;18.64;37.70
49063;BME280;34876;51.464;-0.150;2024-03-25T08:28:29;100177.90;;;18.61;37.84
49063;BME280;34876;51.464;-0.150;2024-03-25T08:30:58;100171.12;;;18.48;38.09
49063;BME280;34876;51.464;-0.150;2024-03-25T08:33:28;100170.98;;;18.39;38.24
49063;BME280;34876;51.464;-0.150;2024-03-25T08:35:58;100163.83;;;18.29;38.45
49063;BME280;34876;51.464;-0.150;2024-03-25T08:38:35;100162.19;;;18.27;38.49
49063;BME280;34876;51.464;-0.150;2024-03-25T08:41:05;100159.55;;;18.35;38.31
49063;BME280;34876;51.464;-0.150;2024-03-25T08:43:34;100158.40;;;18.40;38.22
49063;BME280;34876;51.464;-0.150;2024-03-25T08:46:04;100157.05;;;18.42;38.17
49063;BME280;34876;51.464;-0.150;2024-03-25T08:48:33;100155.57;;;18.24;38.47
49063;BME280;34876;51.464;-0.150;2024-03-25T08:51:03;100148.69;;;18.32;38.32
49063;BME280;34876;51.464;-0.150;2024-03-25T08:53:33;100142.42;;;17.95;38.93
49063;BME280;34876;51.464;-0.150;2024-03-25T08:56:02;100142.72;;;18.32;38.31
49063;BME280;34876;51.464;-0.150;2024-03-25T08:58:32;100140.75;;;18.34;38.29
49063;BME280;34876;51.464;-0.150;2024-03-25T09:01:01;100141.60;;;18.43;38.13
49063;BME280;34876;51.464;-0.150;2024-03-25T09:03:31;100131.64;;;18.44;38.02
49063;BME280;34876;51.464;-0.150;2024-03-25T09:06:07;100131.92;;;18.47;37.93
49063;BME280;34876;51.464;-0.150;2024-03-25T09:08:41;100133.04;;;18.44;38.03
49063;BME280;34876;51.464;-0.150;2024-03-25T09:11:16;100134.27;;;18.36;38.17
49063;BME280;34876;51.464;-0.150;2024-03-25T09:13:58;100131.74;;;18.47;37.98
49063;BME280;34876;51.464;-0.150;2024-03-25T09:16:27;100127.04;;;18.28;38.25
49063;BME280;34876;51.464;-0.150;2024-03-25T09:18:56;100129.31;;;18.40;38.06
49063;BME280;34876;51.464;-0.150;2024-03-25T09:21:27;100121.58;;;18.42;37.95
49063;BME280;34876;51.464;-0.150;2024-03-25T09:23:56;100124.01;;;18.35;38.09
49063;BME280;34876;51.464;-0.150;2024-03-25T09:26:31;100119.92;;;18.41;37.96
49063;BME280;34876;51.464;-0.150;2024-03-25T09:28:59;100125.24;;;18.38;38.00
49063;BME280;34876;51.464;-0.150;2024-03-25T09:31:29;100124.74;;;18.40;37.93
49063;BME280;34876;51.464;-0.150;2024-03-25T09:34:00;100122.49;;;18.35;37.97
49063;BME280;34876;51.464;-0.150;2024-03-25T09:36:29;100121.58;;;18.37;37.96
49063;BME280;34876;51.464;-0.150;2024-03-25T09:38:57;100116.74;;;18.40;37.90
49063;BME280;34876;51.464;-0.150;2024-03-25T09:41:28;100114.64;;;18.36;37.90
49063;BME280;34876;51.464;-0.150;2024-03-25T09:43:59;100112.68;;;18.20;35.58
49063;BME280;34876;51.464;-0.150;2024-03-25T09:46:28;100115.69;;;18.27;37.83
49063;BME280;34876;51.464;-0.150;2024-03-25T09:48:57;100113.85;;;18.31;38.05
49063;BME280;34876;51.464;-0.150;2024-03-25T09:51:27;100115.35;;;18.31;37.93
49063;BME280;34876;51.464;-0.150;2024-03-25T09:53:57;100110.73;;;18.29;38.00
49063;BME280;34876;51.464;-0.150;2024-03-25T09:56:27;100108.13;;;18.21;38.06
49063;BME280;34876;51.464;-0.150;2024-03-25T09:59:02;100104.97;;;18.28;37.85
49063;BME280;34876;51.464;-0.150;2024-03-25T10:01:32;100103.99;;;18.25;37.91
49063;BME280;34876;51.464;-0.150;2024-03-25T10:04:02;100100.80;;;18.25;37.86
49063;BME280;34876;51.464;-0.150;2024-03-25T10:06:31;100098.45;;;18.14;37.95
49063;BME280;34876;51.464;-0.150;2024-03-25T10:09:03;100099.96;;;18.13;37.96
49063;BME280;34876;51.464;-0.150;2024-03-25T10:11:34;100094.73;;;18.22;37.76
49063;BME280;34876;51.464;-0.150;2024-03-25T10:14:04;100094.47;;;18.23;37.81
49063;BME280;34876;51.464;-0.150;2024-03-25T10:16:34;100095.32;;;17.94;37.61
49063;BME280;34876;51.464;-0.150;2024-03-25T10:19:02;100093.28;;;18.20;37.75
49063;BME280;34876;51.464;-0.150;2024-03-25T10:21:32;100095.18;;;18.30;37.66
49063;BME280;34876;51.464;-0.150;2024-03-25T10:24:05;100092.57;;;18.30;37.51
49063;BME280;34876;51.464;-0.150;2024-03-25T10:26:34;100092.90;;;18.32;37.55
49063;BME280;34876;51.464;-0.150;2024-03-25T10:29:04;100093.95;;;18.28;37.59
49063;BME280;34876;51.464;-0.150;2024-03-25T10:31:34;100090.13;;;18.23;37.62
49063;BME280;34876;51.464;-0.150;2024-03-25T10:34:08;100088.37;;;18.26;37.59
49063;BME280;34876;51.464;-0.150;2024-03-25T10:36:37;100086.45;;;18.27;37.53
49063;BME280;34876;51.464;-0.150;2024-03-25T10:39:06;100086.46;;;18.25;37.52
49063;BME280;34876;51.464;-0.150;2024-03-25T10:41:36;100086.36;;;18.30;37.46
49063;BME280;34876;51.464;-0.150;2024-03-25T10:44:06;100085.43;;;18.25;36.24
49063;BME280;34876;51.464;-0.150;2024-03-25T10:46:43;100081.45;;;17.99;38.04
49063;BME280;34876;51.464;-0.150;2024-03-25T10:49:19;100080.47;;;18.07;36.69
49063;BME280;34876;51.464;-0.150;2024-03-25T10:51:51;100073.12;;;18.11;37.82
49063;BME280;34876;51.464;-0.150;2024-03-25T10:54:30;100077.03;;;18.23;37.41
49063;BME280;34876;51.464;-0.150;2024-03-25T10:57:06;100068.09;;;17.99;38.02
49063;BME280;34876;51.464;-0.150;2024-03-25T10:59:37;100066.66;;;18.13;37.68
49063;BME280;34876;51.464;-0.150;2024-03-25T11:02:07;100060.73;;;18.20;37.57
49063;BME280;34876;51.464;-0.150;2024-03-25T11:04:37;100057.68;;;18.25;37.50
49063;BME280;34876;51.464;-0.150;2024-03-25T11:07:11;100051.36;;;18.22;37.56
49063;BME280;34876;51.464;-0.150;2024-03-25T11:09:41;100049.83;;;18.18;37.58
49063;BME280;34876;51.464;-0.150;2024-03-25T11:12:12;100044.87;;;18.24;37.50
49063;BME280;34876;51.464;-0.150;2024-03-25T11:14:41;100038.39;;;18.28;37.43
49063;BME280;34876;51.464;-0.150;2024-03-25T11:17:15;100034.02;;;18.20;37.45
49063;BME280;34876;51.464;-0.150;2024-03-25T11:19:49;100027.55;;;18.28;37.51
49063;BME280;34876;51.464;-0.150;2024-03-25T11:22:24;100021.26;;;18.24;37.58
49063;BME280;34876;51.464;-0.150;2024-03-25T11:24:55;100021.03;;;18.30;37.41
49063;BME280;34876;51.464;-0.150;2024-03-25T11:27:26;100017.09;;;18.24;37.26
49063;BME280;34876;51.464;-0.150;2024-03-25T11:29:55;100017.83;;;18.19;37.63
49063;BME280;34876;51.464;-0.150;2024-03-25T11:32:27;100009.32;;;18.10;37.84
49063;BME280;34876;51.464;-0.150;2024-03-25T11:35:01;100008.22;;;18.16;37.72
49063;BME280;34876;51.464;-0.150;2024-03-25T11:37:31;100004.09;;;18.04;37.86
49063;BME280;34876;51.464;-0.150;2024-03-25T11:40:02;100001.10;;;18.02;37.97
49063;BME280;34876;51.464;-0.150;2024-03-25T11:42:31;99997.56;;;18.24;37.59
49063;BME280;34876;51.464;-0.150;2024-03-25T11:45:01;99991.06;;;18.10;37.52
49063;BME280;34876;51.464;-0.150;2024-03-25T11:47:31;99984.37;;;18.26;37.47
49063;BME280;34876;51.464;-0.150;2024-03-25T11:50:07;99980.20;;;18.25;37.58
49063;BME280;34876;51.464;-0.150;2024-03-25T11:52:44;99977.19;;;18.23;37.64
49063;BME280;34876;51.464;-0.150;2024-03-25T11:55:21;99966.93;;;18.31;37.48
49063;BME280;34876;51.464;-0.150;2024-03-25T11:57:55;99957.81;;;18.44;37.25
49063;BME280;34876;51.464;-0.150;2024-03-25T12:00:24;99955.83;;;18.47;37.12
49063;BME280;34876;51.464;-0.150;2024-03-25T12:02:59;99944.97;;;18.46;37.14
49063;BME280;34876;51.464;-0.150;2024-03-25T12:05:28;99941.89;;;18.28;37.15
49063;BME280;34876;51.464;-0.150;2024-03-25T12:07:58;99936.00;;;18.33;37.41
49063;BME280;34876;51.464;-0.150;2024-03-25T12:10:27;99934.76;;;18.40;37.35
49063;BME280;34876;51.464;-0.150;2024-03-25T12:12:58;99925.79;;;18.26;37.52
49063;BME280;34876;51.464;-0.150;2024-03-25T12:15:28;99917.00;;;18.34;37.46
49063;BME280;34876;51.464;-0.150;2024-03-25T12:17:57;99911.45;;;18.33;37.50
49063;BME280;34876;51.464;-0.150;2024-03-25T12:20:26;99911.09;;;18.25;37.54
49063;BME280;34876;51.464;-0.150;2024-03-25T12:22:56;99905.55;;;18.31;37.46
49063;BME280;34876;51.464;-0.150;2024-03-25T12:25:26;99903.19;;;18.34;37.48
49063;BME280;34876;51.464;-0.150;2024-03-25T12:27:56;99896.89;;;18.40;37.28
49063;BME280;34876;51.464;-0.150;2024-03-25T12:30:26;99898.99;;;18.39;37.32
49063;BME280;34876;51.464;-0.150;2024-03-25T12:33:02;99893.02;;;18.37;37.35
49063;BME280;34876;51.464;-0.150;2024-03-25T12:35:35;99889.62;;;18.32;37.47
49063;BME280;34876;51.464;-0.150;2024-03-25T12:38:04;99885.97;;;18.31;37.50
49063;BME280;34876;51.464;-0.150;2024-03-25T12:40:33;99884.72;;;18.33;37.46
49063;BME280;34876;51.464;-0.150;2024-03-25T12:43:03;99879.16;;;18.14;37.46
49063;BME280;34876;51.464;-0.150;2024-03-25T12:45:38;99875.88;;;18.29;37.60
49063;BME280;34876;51.464;-0.150;2024-03-25T12:48:09;99867.21;;;18.41;37.39
49063;BME280;34876;51.464;-0.150;2024-03-25T12:50:39;99864.24;;;18.50;37.16
49063;BME280;34876;51.464;-0.150;2024-03-25T12:53:17;99863.64;;;18.36;37.42
49063;BME280;34876;51.464;-0.150;2024-03-25T12:55:46;99859.60;;;18.41;37.39
49063;BME280;34876;51.464;-0.150;2024-03-25T12:58:16;99853.08;;;18.31;37.64